Time;durP1;ratioP1;P1;durP2;ratioP2;P2;SDS_P1;SDS_P2;PMS_P1;PMS_P2;Temp;Humidity;BMP_temperature;BMP_pressure;BME280_temperature;BME280_humidity;BME280_pressure;Samples;Min_cycle;Max_cycle;Signal;HPM_P1;HPM_P2
2022/06/26 00:01:46;;;;;;;10.75;4.05;;;;;;;18.43;nan;95134.38;6256985;22;20012;-84
2022/06/26 00:04:12;;;;;;;9.25;3.70;;;;;;;18.52;nan;95116.31;6259186;22;20195;-84
2022/06/26 00:06:37;;;;;;;7.05;3.00;;;;;;;18.10;nan;95058.25;6258909;22;20007;-84
2022/06/26 00:09:04;;;;;;;7.40;3.22;;;;;;;18.38;nan;95054.03;6258502;22;20003;-83
2022/06/26 00:11:29;;;;;;;10.80;3.42;;;;;;;19.13;nan;95137.44;6255711;22;20008;-84
2022/06/26 00:13:55;;;;;;;9.07;3.92;;;;;;;19.73;nan;95212.28;6259177;22;20034;-83
2022/06/26 00:16:21;;;;;;;12.35;3.35;;;;;;;19.94;nan;95218.41;6256457;22;20020;-84
2022/06/26 00:18:47;;;;;;;9.35;3.35;;;;;;;19.69;nan;95211.34;6255405;22;20007;-84
2022/06/26 00:21:13;;;;;;;7.95;3.60;;;;;;;19.45;nan;95213.91;6256453;22;20019;-83
2022/06/26 00:23:39;;;;;;;4.80;3.17;;;;;;;19.20;nan;95157.31;6284268;22;20011;-84
2022/06/26 00:26:04;;;;;;;13.60;3.33;;;;;;;19.44;nan;95229.25;6260907;22;20062;-84
2022/06/26 00:28:31;;;;;;;9.50;3.72;;;;;;;19.34;nan;95178.56;6260755;22;20226;-84
2022/06/26 00:30:56;;;;;;;10.60;3.83;;;;;;;18.62;nan;95085.63;6258758;22;20086;-84
2022/06/26 00:33:22;;;;;;;13.52;3.60;;;;;;;19.18;nan;95146.09;6260140;22;20038;-83
2022/06/26 00:35:47;;;;;;;17.83;3.50;;;;;;;19.63;nan;95175.00;6261668;22;20004;-83
2022/06/26 00:38:13;;;;;;;6.95;3.42;;;;;;;19.13;nan;95083.69;6258297;22;20853;-84
2022/06/26 00:40:42;;;;;;;10.93;3.60;;;;;;;19.58;nan;95141.03;6261024;22;20024;-84
2022/06/26 00:43:09;;;;;;;7.13;3.80;;;;;;;20.16;nan;95211.84;6261874;22;20039;-84
2022/06/26 00:45:34;;;;;;;12.68;3.70;;;;;;;19.14;nan;95026.13;6259649;22;20014;-83
2022/06/26 00:48:00;;;;;;;8.60;3.47;;;;;;;19.78;nan;95147.47;6260417;22;20229;-83
2022/06/26 00:50:26;;;;;;;7.50;3.20;;;;;;;20.24;nan;95197.50;6258646;22;20011;-84
2022/06/26 00:52:53;;;;;;;9.20;4.10;;;;;;;20.50;nan;95209.94;6257279;22;20101;-83
2022/06/26 00:55:20;;;;;;;6.47;3.40;;;;;;;20.53;nan;95206.56;6257992;22;20014;-83
2022/06/26 00:57:46;;;;;;;9.93;3.35;;;;;;;20.04;nan;95169.53;6260514;22;20011;-83
2022/06/26 01:00:13;;;;;;;8.55;3.92;;;;;;;20.41;nan;95207.34;6261287;22;20086;-84
2022/06/26 01:02:39;;;;;;;13.45;3.63;;;;;;;19.95;nan;95116.91;6260652;22;20487;-84
2022/06/26 01:05:06;;;;;;;10.88;4.25;;;;;;;20.48;nan;95212.16;6261460;22;20130;-84
2022/06/26 01:07:31;;;;;;;8.85;3.53;;;;;;;20.61;nan;95211.03;6260335;22;20433;-83
2022/06/26 01:09:57;;;;;;;8.82;3.72;;;;;;;19.86;nan;95103.56;6259806;22;20008;-84
2022/06/26 01:12:23;;;;;;;4.57;3.15;;;;;;;20.10;nan;95150.47;6259827;22;20022;-83
2022/06/26 01:14:49;;;;;;;9.82;4.03;;;;;;;20.01;nan;95153.25;6258492;22;20455;-83
2022/06/26 01:17:15;;;;;;;7.80;4.07;;;;;;;19.81;nan;95143.34;6259745;22;20480;-83
2022/06/26 01:19:40;;;;;;;8.35;3.45;;;;;;;20.33;nan;95218.97;6260201;22;20008;-83
2022/06/26 01:22:06;;;;;;;6.60;3.95;;;;;;;19.94;nan;95134.19;6261339;22;20415;-83
2022/06/26 01:24:32;;;;;;;11.20;4.13;;;;;;;20.05;nan;95162.25;6262452;22;20038;-83
2022/06/26 01:27:00;;;;;;;8.38;3.53;;;;;;;19.77;nan;95099.38;6259953;22;20434;-83
2022/06/26 01:29:26;;;;;;;10.48;3.83;;;;;;;20.34;nan;95191.72;6262658;22;20035;-84
2022/06/26 01:31:51;;;;;;;9.00;4.05;;;;;;;18.87;nan;94981.78;6262217;22;20008;-83
2022/06/26 01:34:17;;;;;;;10.85;4.22;;;;;;;19.72;nan;95105.75;6258987;22;20011;-83
2022/06/26 01:36:42;;;;;;;10.95;4.28;;;;;;;20.43;nan;95218.56;6261554;22;20063;-83
2022/06/26 01:39:08;;;;;;;9.75;4.38;;;;;;;20.15;nan;95183.34;6260931;22;20024;-83
2022/06/26 01:41:33;;;;;;;10.07;4.40;;;;;;;19.81;nan;95124.50;6257422;22;20031;-83
2022/06/26 01:43:59;;;;;;;9.68;4.57;;;;;;;20.18;nan;95163.06;6259736;22;20007;-83
2022/06/26 01:46:25;;;;;;;9.82;4.40;;;;;;;20.59;nan;95224.88;6259460;22;20047;-83
2022/06/26 01:48:51;;;;;;;11.50;4.13;;;;;;;19.85;nan;95118.13;6257010;22;20011;-83
2022/06/26 01:51:16;;;;;;;11.57;4.60;;;;;;;20.37;nan;95231.44;6259051;22;20018;-83
2022/06/26 01:53:42;;;;;;;15.07;4.22;;;;;;;20.24;nan;95185.94;6258594;22;20012;-83
2022/06/26 01:56:08;;;;;;;9.07;4.43;;;;;;;20.63;nan;95238.44;6259331;22;20259;-84
2022/06/26 01:58:34;;;;;;;14.48;4.80;;;;;;;20.11;nan;95160.13;6256993;22;20366;-84
2022/06/26 02:01:01;;;;;;;14.43;4.20;;;;;;;19.50;nan;95082.72;6257442;22;20425;-84
2022/06/26 02:03:27;;;;;;;12.10;4.45;;;;;;;20.64;nan;95246.19;6256630;22;20589;-84
2022/06/26 02:05:53;;;;;;;12.85;4.05;;;;;;;20.70;nan;95249.47;6259340;22;20012;-85
2022/06/26 02:08:19;;;;;;;15.65;4.13;;;;;;;20.67;nan;95260.94;6257126;22;20007;-84
2022/06/26 02:13:42;;;;;;;14.57;4.28;;;;;;;19.96;nan;95162.34;6258976;22;20035;-84
2022/06/26 02:16:18;;;;;;;14.48;4.18;;;;;;;20.57;nan;95253.28;6259370;22;20018;-83
2022/06/26 02:18:50;;;;;;;17.50;4.07;;;;;;;20.40;nan;95228.09;6257227;22;20472;-83
2022/06/26 02:21:19;;;;;;;13.02;4.80;;;;;;;20.62;nan;95266.50;6259465;22;20086;-83
2022/06/26 02:23:46;;;;;;;8.48;4.35;;;;;;;20.52;nan;95248.09;6259056;22;20046;-83
2022/06/26 02:26:11;;;;;;;7.30;4.28;;;;;;;20.30;nan;95206.16;6259230;22;20016;-83
2022/06/26 02:28:38;;;;;;;11.95;4.85;;;;;;;20.54;nan;95235.06;6257939;22;20194;-83
2022/06/26 02:31:05;;;;;;;12.52;4.63;;;;;;;19.99;nan;95168.94;6256798;22;20014;-83
2022/06/26 02:33:34;;;;;;;10.85;4.82;;;;;;;20.51;nan;95257.31;6258655;22;20011;-84
2022/06/26 02:36:00;;;;;;;10.18;5.28;;;;;;;20.59;nan;95246.44;6256478;22;20034;-83
2022/06/26 02:38:26;;;;;;;16.47;4.87;;;;;;;19.89;nan;95164.00;6205190;22;1179918;-84
2022/06/26 02:40:53;;;;;;;11.13;5.00;;;;;;;19.28;nan;95094.63;6258827;22;20007;-84
2022/06/26 02:43:19;;;;;;;16.98;5.57;;;;;;;19.91;nan;95196.75;6260182;22;20025;-84
2022/06/26 02:45:46;;;;;;;13.18;5.80;;;;;;;20.49;nan;95259.53;6259387;22;20075;-83
2022/06/26 02:48:11;;;;;;;14.80;6.63;;;;;;;19.32;nan;95083.97;6259191;22;20007;-84
2022/06/26 02:50:37;;;;;;;19.50;6.45;;;;;;;20.15;nan;95222.94;6257861;22;20015;-84
2022/06/26 02:53:04;;;;;;;14.10;5.93;;;;;;;20.15;nan;95223.72;6256691;22;20015;-83
2022/06/26 02:55:30;;;;;;;13.35;6.28;;;;;;;20.45;nan;95264.78;6259272;22;20003;-83
2022/06/26 02:57:55;;;;;;;10.15;5.43;;;;;;;19.39;nan;95104.94;6258038;22;20018;-83
2022/06/26 03:00:20;;;;;;;13.95;5.50;;;;;;;19.66;nan;95166.28;6284253;22;20344;-84
2022/06/26 03:02:46;;;;;;;14.38;6.00;;;;;;;19.89;nan;95190.91;6258265;22;20011;-84
2022/06/26 03:05:11;;;;;;;12.93;5.70;;;;;;;20.35;nan;95268.72;6257690;22;20011;-83
2022/06/26 03:07:37;;;;;;;12.90;5.55;;;;;;;19.96;nan;95220.78;6257943;22;20581;-84
2022/06/26 03:10:02;;;;;;;16.20;5.50;;;;;;;19.80;nan;95200.97;6258246;22;20015;-84
2022/06/26 03:12:28;;;;;;;17.33;5.55;;;;;;;19.41;nan;95186.09;6259053;22;20038;-84
2022/06/26 03:14:53;;;;;;;11.45;5.55;;;;;;;20.26;nan;95270.69;6260820;22;20003;-84
2022/06/26 03:17:19;;;;;;;16.83;5.10;;;;;;;20.30;nan;95282.34;6259923;22;20008;-84
2022/06/26 03:19:45;;;;;;;11.98;5.88;;;;;;;19.96;nan;95245.00;6257980;22;20059;-84
2022/06/26 03:22:10;;;;;;;14.40;5.97;;;;;;;19.77;nan;95199.72;6258145;22;20104;-84
2022/06/26 03:24:36;;;;;;;13.82;5.63;;;;;;;19.45;nan;95160.13;6259804;22;20006;-84
2022/06/26 03:27:02;;;;;;;17.00;5.70;;;;;;;19.70;nan;95268.63;6259891;22;20304;-84
2022/06/26 03:29:28;;;;;;;16.73;5.75;;;;;;;19.59;nan;95246.75;6258917;22;20737;-84
2022/06/26 03:31:53;;;;;;;18.67;6.63;;;;;;;20.09;nan;95281.59;6258880;22;20015;-84
2022/06/26 03:34:19;;;;;;;11.98;6.28;;;;;;;19.76;nan;95213.53;6260428;22;20012;-84
2022/06/26 03:36:45;;;;;;;12.50;6.57;;;;;;;20.26;nan;95280.66;6259598;22;20004;-84
2022/06/26 03:39:10;;;;;;;19.52;6.75;;;;;;;19.99;nan;95230.84;6260199;22;20427;-83
2022/06/26 03:41:36;;;;;;;12.18;6.07;;;;;;;20.17;nan;95248.44;6260097;22;20053;-84
2022/06/26 03:44:01;;;;;;;16.02;6.50;;;;;;;19.97;nan;95217.75;6259856;22;20519;-83
2022/06/26 03:46:27;;;;;;;16.88;6.18;;;;;;;19.87;nan;95196.63;6258753;22;20011;-84
2022/06/26 03:48:53;;;;;;;16.05;5.45;;;;;;;20.16;nan;95249.53;6283481;22;20003;-83
2022/06/26 03:51:18;;;;;;;21.38;6.47;;;;;;;19.84;nan;95186.50;6259947;22;20008;-83
2022/06/26 03:53:44;;;;;;;12.93;6.65;;;;;;;19.58;nan;95162.56;6258333;22;20035;-84
2022/06/26 03:56:09;;;;;;;13.55;5.53;;;;;;;20.08;nan;95273.84;6259726;22;20398;-83
2022/06/26 03:58:35;;;;;;;17.42;5.93;;;;;;;20.24;nan;95285.59;6259569;22;20049;-84
2022/06/26 04:01:00;;;;;;;12.27;5.65;;;;;;;19.92;nan;95258.31;6260793;22;20022;-84
2022/06/26 04:03:26;;;;;;;16.45;5.97;;;;;;;19.96;nan;95274.59;6259682;22;20015;-84
2022/06/26 04:05:52;;;;;;;15.23;6.40;;;;;;;18.84;nan;95122.16;6261583;22;20069;-84
2022/06/26 04:08:17;;;;;;;13.15;5.93;;;;;;;19.77;nan;95250.84;6261459;22;20061;-83
2022/06/26 04:10:43;;;;;;;13.48;6.45;;;;;;;20.21;nan;95315.88;6259880;22;20004;-84
2022/06/26 04:13:11;;;;;;;11.73;6.53;;;;;;;20.29;nan;95307.69;6261737;22;19995;-83
2022/06/26 04:15:37;;;;;;;13.65;6.45;;;;;;;20.36;nan;95315.28;6261779;22;20441;-84
2022/06/26 04:18:03;;;;;;;13.80;6.70;;;;;;;19.61;nan;95198.75;6260788;22;20296;-83
2022/06/26 04:20:30;;;;;;;14.55;5.78;;;;;;;20.36;nan;95309.91;6261696;22;20017;-83
2022/06/26 04:23:09;;;;;;;19.95;6.80;;;;;;;20.42;nan;95308.56;6259287;22;20053;-83
2022/06/26 04:25:37;;;;;;;16.15;7.10;;;;;;;19.64;nan;95173.91;6262257;22;20049;-84
2022/06/26 04:28:05;;;;;;;11.65;6.00;;;;;;;19.59;nan;95235.97;6261491;22;20035;-83
2022/06/26 04:30:30;;;;;;;13.73;6.30;;;;;;;19.73;nan;95244.56;6258388;22;20011;-84
2022/06/26 04:32:56;;;;;;;14.07;6.20;;;;;;;19.50;nan;95195.69;6259902;22;20054;-84
2022/06/26 04:35:21;;;;;;;19.15;6.28;;;;;;;19.65;nan;95200.47;6259647;22;20125;-84
2022/06/26 04:37:47;;;;;;;21.35;6.72;;;;;;;20.01;nan;95255.56;6262068;22;20007;-84
2022/06/26 04:40:13;;;;;;;16.17;6.90;;;;;;;19.84;nan;95210.72;6261452;22;20024;-84
2022/06/26 04:42:40;;;;;;;16.38;6.90;;;;;;;20.39;nan;95285.78;6259295;22;20038;-84
2022/06/26 04:45:06;;;;;;;11.95;6.13;;;;;;;19.94;nan;95214.94;6262274;22;20018;-84
2022/06/26 04:47:32;;;;;;;11.10;6.78;;;;;;;19.79;nan;95188.63;6261546;22;20007;-84
2022/06/26 04:49:57;;;;;;;13.45;5.80;;;;;;;20.46;nan;95312.16;6261039;22;20035;-84
2022/06/26 04:52:23;;;;;;;13.45;5.97;;;;;;;19.91;nan;95237.91;6261895;22;20003;-84
2022/06/26 04:54:48;;;;;;;14.27;6.03;;;;;;;20.37;nan;95300.69;6258711;22;20003;-84
2022/06/26 04:57:14;;;;;;;13.25;5.93;;;;;;;19.97;nan;95278.88;6259146;22;20008;-84
2022/06/26 04:59:39;;;;;;;15.00;6.70;;;;;;;20.12;nan;95329.41;6261537;22;20003;-84
2022/06/26 05:02:07;;;;;;;14.07;6.57;;;;;;;19.50;nan;95225.28;6259083;22;20118;-84
2022/06/26 05:04:33;;;;;;;13.85;7.10;;;;;;;19.98;nan;95310.06;6258346;22;20183;-84
2022/06/26 05:06:58;;;;;;;11.43;6.65;;;;;;;19.27;nan;95180.97;6258227;22;20034;-84
2022/06/26 05:09:25;;;;;;;17.48;7.03;;;;;;;20.18;nan;95309.25;6258089;22;20816;-84
2022/06/26 05:11:50;;;;;;;16.05;7.45;;;;;;;20.31;nan;95335.09;6258839;22;20007;-84
2022/06/26 05:14:17;;;;;;;21.08;7.13;;;;;;;19.61;nan;95233.72;6260483;22;20069;-84
2022/06/26 05:16:42;;;;;;;14.13;6.70;;;;;;;19.65;nan;95230.06;6261376;22;20011;-84
2022/06/26 05:19:08;;;;;;;16.85;7.65;;;;;;;19.83;nan;95272.97;6261870;22;20011;-84
2022/06/26 05:21:34;;;;;;;17.58;7.22;;;;;;;20.39;nan;95339.66;6284002;22;20343;-84
2022/06/26 05:23:59;;;;;;;15.57;7.57;;;;;;;19.68;nan;95215.19;6260484;22;20006;-84
2022/06/26 05:26:25;;;;;;;15.57;6.78;;;;;;;19.90;nan;95214.03;6261139;22;20014;-84
2022/06/26 05:28:51;;;;;;;11.95;6.97;;;;;;;20.59;nan;95351.50;6259227;22;20016;-84
2022/06/26 05:31:18;;;;;;;12.90;6.95;;;;;;;19.65;nan;95194.31;6259404;22;20018;-84
2022/06/26 05:33:44;;;;;;;17.05;6.43;;;;;;;19.68;nan;95198.25;6260564;22;20103;-85
2022/06/26 05:36:10;;;;;;;14.75;7.00;;;;;;;20.19;nan;95275.81;6258731;22;20011;-84
2022/06/26 05:38:37;;;;;;;16.00;6.07;;;;;;;20.37;nan;95317.63;6261043;22;20054;-84
2022/06/26 05:41:03;;;;;;;16.15;7.35;;;;;;;20.05;nan;95280.69;6260542;22;20008;-84
2022/06/26 05:43:28;;;;;;;10.40;5.90;;;;;;;19.47;nan;95287.78;6258006;22;20528;-84
2022/06/26 05:45:54;;;;;;;19.38;6.95;;;;;;;19.97;nan;95360.41;6257457;22;20012;-84
2022/06/26 05:48:19;;;;;;;22.42;7.15;;;;;;;19.36;nan;95278.50;6259933;22;20494;-84
2022/06/26 05:50:45;;;;;;;10.73;6.43;;;;;;;19.65;nan;95299.22;6257783;22;20065;-84
2022/06/26 05:53:11;;;;;;;15.85;7.07;;;;;;;19.31;nan;95261.75;6259990;22;20435;-84
2022/06/26 05:55:38;;;;;;;15.60;8.00;;;;;;;19.84;nan;95313.00;6261074;22;20012;-84
2022/06/26 05:58:05;;;;;;;17.40;6.72;;;;;;;20.21;nan;95367.84;6260704;22;20008;-84
2022/06/26 06:00:31;;;;;;;14.98;6.70;;;;;;;20.04;nan;95352.59;6260030;22;20011;-84
2022/06/26 06:02:57;;;;;;;18.02;8.45;;;;;;;20.29;nan;95368.88;6257636;22;20012;-84
2022/06/26 06:05:22;;;;;;;17.95;8.43;;;;;;;19.99;nan;95293.56;6261351;22;20411;-84
2022/06/26 06:07:48;;;;;;;18.98;7.57;;;;;;;19.59;nan;95246.75;6259313;22;20056;-84
2022/06/26 06:10:13;;;;;;;13.30;7.63;;;;;;;20.66;nan;95367.94;6259036;22;20041;-84
2022/06/26 06:12:39;;;;;;;13.60;6.60;;;;;;;20.24;nan;95334.06;6260251;22;20459;-84
2022/06/26 06:15:05;;;;;;;12.07;7.20;;;;;;;19.59;nan;95265.56;6261189;22;20086;-84
2022/06/26 06:17:36;;;;;;;15.52;7.55;;;;;;;19.33;nan;95246.09;6257630;22;20106;-84
2022/06/26 06:20:08;;;;;;;14.45;7.53;;;;;;;19.73;nan;95284.94;6260182;22;20016;-84
2022/06/26 06:22:34;;;;;;;14.15;7.60;;;;;;;19.97;nan;95321.94;6257451;22;20093;-84
2022/06/26 06:24:59;;;;;;;18.98;7.55;;;;;;;20.08;nan;95316.94;6260062;22;20011;-83
2022/06/26 06:27:25;;;;;;;16.95;6.63;;;;;;;19.72;nan;95247.56;6260447;22;20018;-84
2022/06/26 06:29:50;;;;;;;17.02;6.63;;;;;;;19.58;nan;95245.94;6261145;22;20101;-84
2022/06/26 06:32:16;;;;;;;13.18;6.25;;;;;;;20.60;nan;95382.69;6258493;22;20000;-84
2022/06/26 06:34:41;;;;;;;19.77;6.65;;;;;;;20.25;nan;95322.16;6260792;22;20008;-83
2022/06/26 06:37:07;;;;;;;16.58;6.90;;;;;;;20.22;nan;95296.69;6258018;22;20043;-84
2022/06/26 06:39:32;;;;;;;9.75;6.60;;;;;;;20.74;nan;95366.25;6257147;22;20105;-84
2022/06/26 06:41:58;;;;;;;15.77;7.40;;;;;;;20.09;nan;95246.59;6260551;22;20110;-84
2022/06/26 06:44:23;;;;;;;15.20;7.68;;;;;;;20.66;nan;95294.38;6261379;22;20436;-84
2022/06/26 06:46:49;;;;;;;11.52;6.10;;;;;;;20.76;nan;95335.16;6259803;22;20018;-82
2022/06/26 06:49:14;;;;;;;12.77;7.03;;;;;;;21.11;nan;95372.50;6260160;22;20015;-84
2022/06/26 06:51:40;;;;;;;15.60;7.07;;;;;;;20.28;nan;95217.28;6257423;22;20011;-84
2022/06/26 06:54:06;;;;;;;20.80;7.15;;;;;;;20.98;nan;95314.31;6257522;22;20065;-84
2022/06/26 06:56:31;;;;;;;16.30;6.07;;;;;;;21.38;nan;95368.38;6258274;22;20015;-84
2022/06/26 06:58:57;;;;;;;18.77;5.68;;;;;;;21.22;nan;95362.88;6259577;22;20010;-84
2022/06/26 07:01:22;;;;;;;10.50;5.32;;;;;;;20.54;nan;95251.22;6259653;22;20434;-84
2022/06/26 07:03:48;;;;;;;22.25;5.43;;;;;;;21.40;nan;95375.03;6259503;22;20008;-84
2022/06/26 07:06:13;;;;;;;15.23;5.43;;;;;;;20.75;nan;95257.34;6258910;22;20425;-84
2022/06/26 07:08:39;;;;;;;11.25;5.57;;;;;;;20.68;nan;95238.22;6260186;22;20007;-84
2022/06/26 07:11:04;;;;;;;10.73;5.50;;;;;;;20.53;nan;95218.13;6259044;22;20007;-84
2022/06/26 07:13:29;;;;;;;15.95;5.97;;;;;;;21.11;nan;95267.34;6260445;22;19999;-84
2022/06/26 07:15:56;;;;;;;12.85;5.85;;;;;;;21.34;nan;95324.34;6259467;22;20015;-84
2022/06/26 07:18:22;;;;;;;10.88;6.50;;;;;;;20.85;nan;95256.09;6260535;22;20007;-84
2022/06/26 07:20:47;;;;;;;13.68;6.63;;;;;;;21.65;nan;95372.34;6259322;22;20382;-84
2022/06/26 07:23:13;;;;;;;14.75;7.68;;;;;;;21.54;nan;95369.28;6259360;22;20016;-84
2022/06/26 07:25:38;;;;;;;10.23;5.53;;;;;;;21.06;nan;95318.78;6259448;22;20439;-83
2022/06/26 07:28:04;;;;;;;12.57;5.93;;;;;;;20.80;nan;95265.19;6259463;22;20011;-83
2022/06/26 07:30:31;;;;;;;9.73;5.30;;;;;;;21.44;nan;95369.72;6257326;22;20019;-83
2022/06/26 07:32:57;;;;;;;12.02;5.45;;;;;;;21.43;nan;95368.19;6259311;22;20006;-83
2022/06/26 07:35:22;;;;;;;16.40;5.47;;;;;;;21.03;nan;95297.91;6257100;22;20016;-83
2022/06/26 07:37:48;;;;;;;12.52;5.25;;;;;;;21.51;nan;95361.88;6258869;22;20008;-84
2022/06/26 07:40:13;;;;;;;10.85;5.75;;;;;;;21.32;nan;95326.59;6257102;22;20031;-83
2022/06/26 07:42:39;;;;;;;12.40;5.18;;;;;;;21.72;nan;95356.34;6257203;22;20340;-83
2022/06/26 07:45:05;;;;;;;11.13;5.00;;;;;;;20.95;nan;95261.06;6256318;22;20007;-83
2022/06/26 07:47:30;;;;;;;7.53;4.72;;;;;;;21.32;nan;95321.97;6256939;22;20011;-84
2022/06/26 07:49:56;;;;;;;11.15;4.95;;;;;;;21.16;nan;95267.09;6257246;22;20011;-83
2022/06/26 07:52:21;;;;;;;11.07;5.03;;;;;;;21.64;nan;95357.25;6260801;22;20403;-84
2022/06/26 07:54:47;;;;;;;10.55;4.75;;;;;;;21.29;nan;95257.13;6259852;22;20014;-84
2022/06/26 07:57:12;;;;;;;14.63;5.82;;;;;;;21.93;nan;95346.97;6257929;22;20012;-84
2022/06/26 07:59:37;;;;;;;9.35;4.90;;;;;;;22.07;nan;95354.72;6260442;22;20490;-83
2022/06/26 08:02:03;;;;;;;8.25;5.15;;;;;;;21.83;nan;95358.22;6257034;22;20351;-83
2022/06/26 08:04:29;;;;;;;11.15;5.80;;;;;;;21.77;nan;95342.63;6257239;22;20012;-83
2022/06/26 08:06:54;;;;;;;20.33;6.78;;;;;;;21.56;nan;95311.16;6256687;22;20019;-83
2022/06/26 08:09:20;;;;;;;16.88;5.43;;;;;;;20.67;nan;95145.81;6260039;22;20038;-83
2022/06/26 08:11:45;;;;;;;14.88;4.38;;;;;;;21.50;nan;95276.66;6259948;22;20003;-84
2022/06/26 08:14:11;;;;;;;16.75;4.93;;;;;;;21.77;nan;95304.81;6259957;22;20012;-83
2022/06/26 08:16:36;;;;;;;7.00;4.38;;;;;;;22.13;nan;95331.75;6259855;22;20007;-83
2022/06/26 08:19:01;;;;;;;14.00;5.95;;;;;;;22.12;nan;95349.09;6256924;22;20102;-83
2022/06/26 08:24:11;;;;;;;10.30;4.43;;;;;;;22.38;nan;95339.75;6259514;22;20768;-83
2022/06/26 08:26:36;;;;;;;8.93;4.50;;;;;;;22.02;nan;95283.97;6259244;22;20011;-84
2022/06/26 08:29:02;;;;;;;18.02;5.47;;;;;;;22.11;nan;95274.59;6260249;22;20091;-83
2022/06/26 08:31:27;;;;;;;13.68;6.43;;;;;;;21.78;nan;95230.81;6259805;22;20098;-83
2022/06/26 08:33:53;;;;;;;10.65;5.32;;;;;;;21.92;nan;95283.28;6258046;22;20359;-83
2022/06/26 08:36:18;;;;;;;13.68;5.63;;;;;;;22.47;nan;95305.28;6259590;22;20502;-83
2022/06/26 08:38:43;;;;;;;12.43;5.45;;;;;;;22.67;nan;95352.91;6257182;22;20454;-83
2022/06/26 08:41:11;;;;;;;11.95;5.82;;;;;;;22.39;nan;95290.78;6257418;22;20016;-83
2022/06/26 08:43:39;;;;;;;21.27;5.97;;;;;;;22.15;nan;95278.19;6261293;22;20192;-83
2022/06/26 08:46:05;;;;;;;12.02;5.32;;;;;;;22.66;nan;95344.03;6262153;22;20553;-83
2022/06/26 08:48:43;;;;;;;12.27;5.00;;;;;;;22.48;nan;95321.16;6258887;22;20430;-83
2022/06/26 08:51:10;;;;;;;12.65;5.10;;;;;;;22.85;nan;95348.81;6259492;22;20065;-83
2022/06/26 08:53:36;;;;;;;17.95;5.28;;;;;;;22.84;nan;95336.41;6261714;22;20458;-83
2022/06/26 08:56:03;;;;;;;18.15;6.10;;;;;;;22.09;nan;95243.66;6258559;22;20507;-83
2022/06/26 08:58:28;;;;;;;13.15;4.63;;;;;;;22.54;nan;95297.34;6259300;22;20015;-83
2022/06/26 09:00:54;;;;;;;6.70;3.55;;;;;;;22.13;nan;95209.41;6260928;22;20018;-83
2022/06/26 09:03:19;;;;;;;8.68;3.42;;;;;;;22.95;nan;95328.59;6261109;22;20011;-83
2022/06/26 09:05:45;;;;;;;13.20;4.43;;;;;;;22.61;nan;95268.59;6261775;22;20495;-84
2022/06/26 09:08:18;;;;;;;6.13;3.53;;;;;;;23.29;nan;95346.81;6258732;22;20506;-83
2022/06/26 09:10:48;;;;;;;6.25;3.53;;;;;;;22.95;nan;95259.06;6261923;22;20401;-83
2022/06/26 09:13:14;;;;;;;7.75;4.13;;;;;;;22.91;nan;95252.75;6259728;22;20004;-83
2022/06/26 09:15:41;;;;;;;11.57;3.72;;;;;;;23.58;nan;95334.75;6259858;22;20454;-83
2022/06/26 09:18:09;;;;;;;8.82;3.35;;;;;;;23.52;nan;95335.38;6261024;22;20008;-83
2022/06/26 09:20:37;;;;;;;9.70;3.33;;;;;;;23.41;nan;95303.44;6260573;22;20038;-83
2022/06/26 09:23:03;;;;;;;11.43;3.80;;;;;;;23.27;nan;95280.63;6260845;22;20150;-83
2022/06/26 09:25:34;;;;;;;7.05;3.13;;;;;;;23.27;nan;95281.44;6261943;22;20007;-83
2022/06/26 09:28:25;;;;;;;11.70;3.15;;;;;;;23.38;nan;95306.03;6262135;22;20057;-83
2022/06/26 09:30:55;;;;;;;10.45;2.95;;;;;;;23.74;nan;95329.31;6255390;22;20015;-83
2022/06/26 09:33:25;;;;;;;9.38;3.40;;;;;;;23.73;nan;95327.72;6258714;22;20004;-83
2022/06/26 09:35:51;;;;;;;8.52;3.15;;;;;;;23.49;nan;95307.13;6258531;22;20011;-84
2022/06/26 09:38:28;;;;;;;8.52;3.85;;;;;;;23.73;nan;95338.56;6260803;22;20011;-83
2022/06/26 09:40:56;;;;;;;6.85;2.78;;;;;;;23.13;nan;95243.22;6258730;22;20446;-83
2022/06/26 09:43:45;;;;;;;4.97;2.97;;;;;;;23.88;nan;95326.91;6257906;22;20020;-83
2022/06/26 09:46:13;;;;;;;9.65;4.45;;;;;;;24.21;nan;95337.31;6242579;22;20429;-83
2022/06/26 09:48:40;;;;;;;6.88;3.45;;;;;;;25.13;nan;95335.56;6260331;22;20012;-83
2022/06/26 09:51:10;;;;;;;7.45;3.10;;;;;;;25.88;nan;95286.69;6259693;22;20008;-83
2022/06/26 09:53:37;;;;;;;10.50;3.78;;;;;;;26.46;nan;95308.81;6257935;22;20102;-83
2022/06/26 09:56:03;;;;;;;7.38;2.88;;;;;;;27.40;nan;95271.16;6260628;22;20065;-83
2022/06/26 09:58:29;;;;;;;5.47;3.33;;;;;;;27.98;nan;95265.72;6259410;22;20088;-84
2022/06/26 10:06:31;;;;;;;7.75;3.50;;;;;;;28.26;nan;95231.56;6260130;22;20023;-83
2022/06/26 10:08:59;;;;;;;11.40;2.70;;;;;;;28.36;nan;95267.06;6258807;22;20413;-83
2022/06/26 10:11:30;;;;;;;12.40;3.08;;;;;;;27.78;nan;95244.56;6259679;22;20480;-84
2022/06/26 10:14:11;;;;;;;9.90;3.00;;;;;;;29.19;nan;95331.59;6260047;22;20058;-84
2022/06/26 10:17:07;;;;;;;7.05;3.00;;;;;;;29.51;nan;95227.81;6259955;22;20019;-84
2022/06/26 10:19:42;;;;;;;6.50;3.08;;;;;;;30.65;nan;95318.47;6196094;22;20020;-82
2022/06/26 10:22:07;;;;;;;9.60;2.80;;;;;;;30.38;nan;95208.72;6257223;22;20042;-84
2022/06/26 10:24:33;;;;;;;5.20;2.30;;;;;;;30.81;nan;95309.78;6260089;22;20012;-83
2022/06/26 10:27:01;;;;;;;9.55;3.10;;;;;;;31.12;nan;95305.31;6257715;22;20455;-83
2022/06/26 10:29:35;;;;;;;5.88;2.55;;;;;;;29.74;nan;95206.25;6260088;22;20475;-83
2022/06/26 10:32:00;;;;;;;8.20;3.15;;;;;;;29.84;nan;95223.78;6257015;22;20083;-83
2022/06/26 10:34:26;;;;;;;8.85;3.20;;;;;;;29.90;nan;95296.81;6261782;22;20078;-83
2022/06/26 10:37:13;;;;;;;10.63;3.90;;;;;;;29.86;nan;95293.31;6259471;22;20114;-83
2022/06/26 10:39:43;;;;;;;8.70;3.33;;;;;;;30.06;nan;95287.44;6256892;22;20078;-84
2022/06/26 10:45:29;;;;;;;5.82;3.03;;;;;;;30.52;nan;95259.88;6259264;22;20027;-84
2022/06/26 10:47:58;;;;;;;5.88;3.40;;;;;;;29.82;nan;95157.81;6260565;22;20008;-83
2022/06/26 10:50:24;;;;;;;8.77;3.03;;;;;;;31.20;nan;95288.44;6258971;22;20031;-84
2022/06/26 10:52:50;;;;;;;7.93;3.15;;;;;;;30.46;nan;95135.56;6259928;22;20008;-83
2022/06/26 10:55:15;;;;;;;8.55;3.20;;;;;;;31.50;nan;95265.84;6257844;22;20469;-83
2022/06/26 10:57:41;;;;;;;10.57;3.63;;;;;;;31.82;nan;95279.25;6258059;22;20007;-84
2022/06/26 11:00:11;;;;;;;8.05;3.25;;;;;;;31.33;nan;95253.88;6258115;22;20394;-83
2022/06/26 11:02:40;;;;;;;8.18;2.83;;;;;;;31.19;nan;95286.09;6257220;22;20019;-84
2022/06/26 11:05:07;;;;;;;10.40;3.55;;;;;;;30.14;nan;95228.78;6259421;22;20059;-84
2022/06/26 11:07:47;;;;;;;7.80;3.10;;;;;;;29.21;nan;95252.78;6256073;22;20450;-83
2022/06/26 11:10:19;;;;;;;6.07;2.40;;;;;;;29.31;nan;95290.22;6256918;22;20012;-84
2022/06/26 11:12:47;;;;;;;10.13;2.70;;;;;;;29.42;nan;95208.28;6257797;22;20123;-83
2022/06/26 11:15:43;;;;;;;4.57;2.60;;;;;;;29.84;nan;95273.78;6259270;22;20026;-84
2022/06/26 11:18:08;;;;;;;7.07;2.20;;;;;;;29.66;nan;95281.25;6231545;22;20751;-83
2022/06/26 11:20:53;;;;;;;4.85;2.58;;;;;;;29.70;nan;95279.28;6259211;22;20012;-83
2022/06/26 11:23:27;;;;;;;7.32;2.20;;;;;;;29.59;nan;95253.16;6258526;22;20238;-83
2022/06/26 11:25:56;;;;;;;3.92;2.00;;;;;;;29.97;nan;95273.41;6259306;22;20111;-83
2022/06/26 11:28:42;;;;;;;6.90;2.47;;;;;;;29.78;nan;95237.09;6259424;22;20034;-83
2022/06/26 11:31:19;;;;;;;7.57;2.47;;;;;;;30.41;nan;95283.75;6257577;22;20946;-83
2022/06/26 11:33:44;;;;;;;6.57;2.00;;;;;;;30.49;nan;95275.13;6256390;22;20008;-83
2022/06/26 11:36:13;;;;;;;3.92;2.20;;;;;;;30.29;nan;95206.41;6258056;22;20389;-84
2022/06/26 11:38:38;;;;;;;7.03;2.03;;;;;;;28.99;nan;95120.19;6259281;22;20028;-84
2022/06/26 11:41:08;;;;;;;6.57;2.15;;;;;;;30.66;nan;95259.81;6259771;22;20011;-84
2022/06/26 11:43:34;;;;;;;4.40;1.92;;;;;;;30.88;nan;95266.72;6256057;22;20016;-84
2022/06/26 11:46:04;;;;;;;10.90;2.47;;;;;;;30.14;nan;95179.53;6257518;22;20015;-83
2022/06/26 11:48:30;;;;;;;4.20;1.80;;;;;;;30.02;nan;95212.81;6259289;22;20421;-83
2022/06/26 11:50:57;;;;;;;7.30;2.30;;;;;;;30.09;nan;95271.00;6257524;22;20018;-83
2022/06/26 11:53:28;;;;;;;7.65;2.30;;;;;;;29.77;nan;95276.53;6258373;22;20008;-83
2022/06/26 11:55:59;;;;;;;9.32;2.47;;;;;;;29.83;nan;95276.91;6259282;22;20065;-83
2022/06/26 11:58:27;;;;;;;5.07;2.20;;;;;;;29.30;nan;95255.88;6258970;22;20613;-82